Time;durP1;ratioP1;P1;durP2;ratioP2;P2;SDS_P1;SDS_P2;PMS_P1;PMS_P2;Temp;Humidity;BMP_temperature;BMP_pressure;BME280_temperature;BME280_humidity;BME280_pressure;Samples;Min_cycle;Max_cycle;Signal;HPM_P1;HPM_P2
2024/03/02 00:00:21;;;;;;;136.10;78.47;;;;;;;6.69;90.03;100035.86;1728521;81;25571;-65
2024/03/02 00:02:51;;;;;;;105.35;65.17;;;;;;;6.69;90.28;100040.42;1756207;81;26029;-66
2024/03/02 00:05:21;;;;;;;57.17;31.15;;;;;;;6.73;90.39;100044.14;1756293;81;26018;-59
2024/03/02 00:07:57;;;;;;;54.58;28.57;;;;;;;6.74;90.82;100044.38;1756345;81;34798;-60
2024/03/02 00:10:41;;;;;;;55.43;29.63;;;;;;;6.73;90.06;100042.80;1756200;81;25716;-55
2024/03/02 00:13:10;;;;;;;52.90;29.25;;;;;;;6.72;90.09;100038.50;1756262;81;25610;-66
2024/03/02 00:15:53;;;;;;;55.28;30.17;;;;;;;6.70;90.23;100034.75;1756211;81;27496;-67
2024/03/02 00:18:35;;;;;;;59.65;30.52;;;;;;;6.67;90.06;100038.57;1756148;81;26116;-67
2024/03/02 00:21:04;;;;;;;57.73;30.80;;;;;;;6.63;90.09;100034.88;1756240;81;25644;-67
2024/03/02 00:23:32;;;;;;;52.15;29.48;;;;;;;6.59;90.11;100041.38;1728526;81;25521;-67
2024/03/02 00:26:01;;;;;;;54.13;30.05;;;;;;;6.57;90.18;100035.46;1756208;81;25666;-66
2024/03/02 00:28:34;;;;;;;55.52;31.02;;;;;;;6.56;90.13;100033.09;1756348;81;28090;-67
2024/03/02 00:31:14;;;;;;;54.45;28.77;;;;;;;6.53;90.31;100033.11;1764480;80;25853;-67
2024/03/02 00:33:49;;;;;;;56.08;30.15;;;;;;;6.50;90.37;100026.44;1759184;81;25566;-68
2024/03/02 00:36:20;;;;;;;63.10;31.73;;;;;;;6.47;90.45;100030.21;1759134;81;25600;-67
2024/03/02 00:38:50;;;;;;;53.17;29.72;;;;;;;6.43;90.79;100024.63;1757284;81;25471;-67
2024/03/02 00:41:25;;;;;;;;;;;;;;;6.40;90.56;100030.56;1761783;81;28005;-67
2024/03/02 00:44:05;;;;;;;51.45;28.12;;;;;;;6.38;90.60;100032.73;1759116;81;25570;-67
2024/03/02 00:46:41;;;;;;;59.27;29.55;;;;;;;6.33;90.87;100026.91;1759180;81;25453;-67
2024/03/02 00:49:23;;;;;;;55.03;30.57;;;;;;;6.32;90.78;100035.25;1759110;81;25550;-67
2024/03/02 00:51:53;;;;;;;56.58;29.02;;;;;;;6.28;91.15;100025.62;1759201;81;25569;-68
2024/03/02 00:54:24;;;;;;;55.52;29.65;;;;;;;6.23;91.47;100031.58;1759158;81;27923;-68
2024/03/02 00:56:54;;;;;;;56.25;30.72;;;;;;;6.22;91.37;100032.68;1759127;81;25389;-67
2024/03/02 00:59:24;;;;;;;55.43;28.62;;;;;;;6.19;91.49;100025.98;1759206;81;25470;-67
2024/03/02 01:01:50;;;;;;;53.87;29.85;;;;;;;6.17;91.59;100028.16;1758665;81;25649;-68
2024/03/02 01:04:17;;;;;;;49.67;28.67;;;;;;;6.14;91.82;100028.17;1759205;81;25405;-68
2024/03/02 01:06:43;;;;;;;58.52;29.60;;;;;;;6.11;91.83;100017.20;1759152;81;27328;-67
2024/03/02 01:09:09;;;;;;;52.30;28.73;;;;;;;6.11;92.04;100031.97;1759064;81;25449;-68
2024/03/02 01:11:36;;;;;;;49.30;28.32;;;;;;;6.08;92.47;100025.82;1759156;81;25399;-67
2024/03/02 01:14:02;;;;;;;50.60;28.77;;;;;;;6.06;92.13;100015.39;1759146;81;25536;-67
2024/03/02 01:16:29;;;;;;;49.95;28.75;;;;;;;6.05;92.46;100015.12;1759171;81;25678;-66
2024/03/02 01:18:55;;;;;;;50.17;26.05;;;;;;;6.04;92.23;100016.75;1759190;81;27666;-67
2024/03/02 01:21:21;;;;;;;48.95;27.73;;;;;;;6.03;92.31;100016.48;1759066;81;25504;-68
2024/03/02 01:23:49;;;;;;;48.05;27.60;;;;;;;6.00;92.31;100011.16;1759172;81;25617;-68
2024/03/02 01:26:15;;;;;;;49.65;26.45;;;;;;;6.00;92.29;100011.70;1759227;81;25408;-67
2024/03/02 01:28:42;;;;;;;45.65;26.27;;;;;;;6.00;92.58;100009.02;1759317;81;25459;-67
2024/03/02 01:31:08;;;;;;;49.80;28.30;;;;;;;5.97;92.52;100009.03;1765262;80;27662;-67
2024/03/02 01:33:34;;;;;;;47.83;26.65;;;;;;;5.96;92.59;100002.87;1789407;80;25625;-67
2024/03/02 01:36:00;;;;;;;49.20;27.32;;;;;;;5.95;92.48;100011.17;1746764;82;25400;-67
2024/03/02 01:38:28;;;;;;;44.27;25.72;;;;;;;5.94;92.48;100008.22;1746726;82;25767;-67
2024/03/02 01:40:56;;;;;;;43.13;23.05;;;;;;;5.93;92.61;100009.33;1746753;82;25612;-66
2024/03/02 01:43:23;;;;;;;43.02;24.43;;;;;;;5.91;92.55;100006.13;1746678;82;27716;-67
2024/03/02 01:45:49;;;;;;;47.65;26.23;;;;;;;5.89;92.70;99999.70;1746660;82;25699;-67
2024/03/02 01:48:15;;;;;;;46.15;25.02;;;;;;;5.88;92.97;99995.95;1746724;82;25381;-67
2024/03/02 01:50:42;;;;;;;43.98;24.72;;;;;;;5.86;93.00;99995.45;1746986;82;25600;-67
2024/03/02 01:53:09;;;;;;;44.33;25.48;;;;;;;5.84;92.92;99999.75;1747037;82;25403;-68
2024/03/02 01:55:36;;;;;;;44.60;25.30;;;;;;;5.84;93.27;100001.62;1746975;82;28081;-68
2024/03/02 01:58:03;;;;;;;47.67;25.27;;;;;;;5.82;93.29;99999.22;1746922;82;25627;-67
2024/03/02 02:00:30;;;;;;;44.98;24.27;;;;;;;5.81;93.09;99997.63;1746894;82;25474;-67
2024/03/02 02:02:57;;;;;;;38.17;20.72;;;;;;;5.77;93.26;99986.67;1746791;82;25475;-68
2024/03/02 02:05:25;;;;;;;41.60;23.22;;;;;;;5.76;93.32;99989.08;1746748;82;25464;-68
2024/03/02 02:07:52;;;;;;;43.25;24.07;;;;;;;5.75;93.33;99990.16;1746661;82;27688;-68
2024/03/02 02:10:18;;;;;;;40.40;22.52;;;;;;;5.74;93.51;99997.97;1746630;82;25647;-68
2024/03/02 02:12:45;;;;;;;41.45;23.00;;;;;;;5.72;93.88;99989.92;1746662;82;25413;-68
2024/03/02 02:15:31;;;;;;;41.77;22.65;;;;;;;5.71;93.80;99991.02;1746642;82;25477;-68
2024/03/02 02:17:59;;;;;;;46.33;24.55;;;;;;;5.69;93.84;99986.48;1746762;82;25412;-68
2024/03/02 02:20:26;;;;;;;40.15;22.93;;;;;;;5.67;93.79;99993.48;1746640;82;27342;-67
2024/03/02 02:23:03;;;;;;;40.20;23.22;;;;;;;5.66;94.10;99989.73;1746607;82;25366;-67
2024/03/02 02:25:30;;;;;;;38.80;22.82;;;;;;;5.64;93.96;99987.88;1746726;82;25443;-68
2024/03/02 02:27:58;;;;;;;41.75;23.02;;;;;;;5.61;94.12;99980.63;1746566;82;25953;-68
2024/03/02 02:30:29;;;;;;;41.80;24.00;;;;;;;5.60;94.23;99985.76;1746700;82;25415;-68
2024/03/02 02:32:57;;;;;;;42.70;23.40;;;;;;;5.57;94.34;99982.30;1746607;80;28021;-69
2024/03/02 02:35:24;;;;;;;42.80;22.60;;;;;;;5.58;94.52;99987.11;1746565;82;25550;-67
2024/03/02 02:37:53;;;;;;;49.20;23.75;;;;;;;5.56;94.61;99979.34;1730105;83;25465;-66
2024/03/02 02:40:20;;;;;;;38.02;22.60;;;;;;;5.56;94.50;99977.20;1730168;83;32473;-66
2024/03/02 02:42:47;;;;;;;40.78;22.27;;;;;;;5.52;94.61;99972.95;1730135;83;25485;-66
2024/03/02 02:45:15;;;;;;;38.00;22.22;;;;;;;5.52;94.65;99979.66;1730092;83;28331;-66
2024/03/02 02:47:44;;;;;;;39.88;21.77;;;;;;;5.50;94.79;99981.01;1729971;83;25966;-66
2024/03/02 02:50:12;;;;;;;42.27;21.65;;;;;;;5.48;94.72;99981.84;1730212;83;25626;-66
2024/03/02 02:52:41;;;;;;;44.60;23.42;;;;;;;5.47;94.95;99980.26;1730075;83;25473;-66
2024/03/02 02:55:15;;;;;;;40.85;23.00;;;;;;;5.46;94.93;99982.67;1746810;82;25655;-67
2024/03/02 02:57:43;;;;;;;43.70;22.48;;;;;;;5.43;95.43;99974.62;1746772;82;27326;-67
2024/03/02 03:00:14;;;;;;;41.83;23.30;;;;;;;5.41;95.50;99978.14;1746555;82;25684;-67
2024/03/02 03:02:45;;;;;;;43.40;22.90;;;;;;;5.38;95.28;99974.16;1746742;81;25567;-66
2024/03/02 03:05:14;;;;;;;42.88;23.52;;;;;;;5.37;95.30;99982.48;1747143;81;25658;-67
2024/03/02 03:07:44;;;;;;;42.35;22.70;;;;;;;5.37;95.19;99977.11;1747257;82;25442;-67
2024/03/02 03:10:11;;;;;;;47.73;22.65;;;;;;;5.35;95.22;99971.23;1747206;82;27329;-66
2024/03/02 03:12:38;;;;;;;42.95;22.65;;;;;;;5.32;95.41;99969.11;1747070;82;25609;-66
2024/03/02 03:15:08;;;;;;;45.83;24.05;;;;;;;5.28;95.38;99971.56;1746674;82;25414;-67
2024/03/02 03:17:34;;;;;;;;;;;;;;;5.28;95.27;99966.72;1749213;82;25655;-67
2024/03/02 03:20:03;;;;;;;44.10;22.73;;;;;;;5.24;95.83;99968.64;1746758;82;25398;-66
2024/03/02 03:22:31;;;;;;;48.38;23.90;;;;;;;5.22;95.83;99962.73;1746772;82;33152;-67
2024/03/02 03:24:59;;;;;;;43.08;24.30;;;;;;;5.21;95.92;99969.20;1746529;82;25748;-66
2024/03/02 03:27:26;;;;;;;47.53;24.77;;;;;;;5.18;95.89;99960.37;1746572;82;25450;-67
2024/03/02 03:29:54;;;;;;;43.35;24.95;;;;;;;5.17;96.12;99957.42;1746562;82;25651;-67
2024/03/02 03:32:21;;;;;;;47.45;25.17;;;;;;;5.16;95.97;99957.69;1750447;80;25423;-66
2024/03/02 03:34:48;;;;;;;47.00;26.20;;;;;;;5.14;96.03;99962.02;1756241;81;27337;-66
2024/03/02 03:37:15;;;;;;;45.73;24.90;;;;;;;5.13;96.54;99959.07;1756154;81;25576;-66
2024/03/02 03:39:41;;;;;;;50.80;26.75;;;;;;;5.13;96.55;99962.30;1756248;81;25583;-67
2024/03/02 03:42:07;;;;;;;49.63;26.42;;;;;;;5.11;96.58;99954.53;1756185;81;25629;-67
2024/03/02 03:44:34;;;;;;;50.50;26.70;;;;;;;5.11;96.60;99961.23;1756261;81;25613;-67
2024/03/02 03:47:03;;;;;;;48.15;26.65;;;;;;;5.10;96.51;99965.54;1756183;81;27213;-67
2024/03/02 03:49:30;;;;;;;;;;;;;;;5.09;96.61;99961.24;1758753;81;25622;-67
2024/03/02 03:51:56;;;;;;;45.73;25.55;;;;;;;5.08;96.63;99961.00;1756214;81;25444;-67
2024/03/02 03:54:24;;;;;;;51.05;26.17;;;;;;;5.06;96.79;99957.26;1756192;81;25559;-67
2024/03/02 03:56:50;;;;;;;50.00;24.52;;;;;;;5.03;96.90;99961.28;1756231;81;25456;-67
2024/03/02 03:59:16;;;;;;;50.03;26.12;;;;;;;5.02;97.23;99953.00;1732944;81;27201;-67
2024/03/02 04:01:42;;;;;;;45.00;24.90;;;;;;;5.01;97.18;99961.31;1756127;81;25622;-66
2024/03/02 04:04:09;;;;;;;50.63;26.07;;;;;;;5.00;97.43;99956.47;1756231;81;25602;-66
2024/03/02 04:06:35;;;;;;;44.90;22.70;;;;;;;4.99;97.40;99949.53;1756182;81;25660;-67
2024/03/02 04:09:03;;;;;;;42.78;21.37;;;;;;;4.98;97.42;99948.47;1756230;81;25468;-67
2024/03/02 04:11:30;;;;;;;42.13;21.12;;;;;;;4.97;97.59;99954.38;1756240;81;27335;-67
2024/03/02 04:13:57;;;;;;;53.38;36.73;;;;;;;4.97;97.53;99952.22;1756154;81;25623;-67
2024/03/02 04:16:23;;;;;;;41.80;21.02;;;;;;;4.97;97.64;99956.23;1756244;81;25485;-67
2024/03/02 04:18:50;;;;;;;41.70;21.27;;;;;;;4.98;97.60;99952.48;1756171;81;25467;-67
2024/03/02 04:21:16;;;;;;;41.20;21.02;;;;;;;4.97;97.63;99952.22;1732965;81;25404;-67
2024/03/02 04:23:43;;;;;;;42.98;21.25;;;;;;;4.97;97.55;99960.26;1756243;81;27207;-67
2024/03/02 04:26:09;;;;;;;48.58;21.50;;;;;;;4.97;97.64;99958.92;1756141;81;25529;-67
2024/03/02 04:28:35;;;;;;;43.50;24.27;;;;;;;4.96;97.81;99960.02;1732896;81;25443;-67
2024/03/02 04:31:02;;;;;;;43.23;24.02;;;;;;;4.98;98.08;99961.87;1756186;81;25617;-67
2024/03/02 04:33:28;;;;;;;44.45;21.95;;;;;;;4.97;98.21;99965.62;1756133;81;25931;-67
2024/03/02 04:35:54;;;;;;;45.45;21.27;;;;;;;4.95;98.34;99971.80;1728522;81;27202;-66
2024/03/02 04:38:21;;;;;;;43.78;21.95;;;;;;;4.95;98.33;99964.55;1756134;81;25476;-66
2024/03/02 04:40:47;;;;;;;45.05;21.65;;;;;;;4.95;98.19;99967.23;1756206;81;25381;-66
2024/03/02 04:43:16;;;;;;;44.77;22.32;;;;;;;4.95;98.45;99965.89;1756151;81;25691;-66
2024/03/02 04:45:42;;;;;;;44.13;21.53;;;;;;;4.96;98.30;99960.80;1756579;81;25398;-66
2024/03/02 04:48:09;;;;;;;50.98;24.30;;;;;;;4.96;98.45;99952.77;1756201;81;27373;-65
2024/03/02 04:50:35;;;;;;;45.90;23.98;;;;;;;4.98;98.39;99954.63;1732858;81;25584;-66
2024/03/02 04:53:02;;;;;;;45.43;23.42;;;;;;;4.97;98.39;99950.88;1756186;81;25604;-66
2024/03/02 04:57:56;;;;;;;41.88;23.22;;;;;;;4.97;98.53;99960.26;1756223;81;25594;-67
2024/03/02 05:00:22;;;;;;;39.88;21.55;;;;;;;4.98;98.76;99956.52;1756367;81;27417;-66
2024/03/02 05:02:49;;;;;;;43.35;21.45;;;;;;;4.98;98.62;99961.87;1756254;81;25552;-66
2024/03/02 05:05:16;;;;;;;50.38;23.60;;;;;;;4.98;98.64;99961.87;1756371;81;25484;-66
2024/03/02 05:07:43;;;;;;;48.55;25.40;;;;;;;4.98;98.88;99955.95;1756260;81;25621;-66
2024/03/02 05:10:14;;;;;;;45.12;24.43;;;;;;;5.02;98.78;99960.22;1756333;81;25485;-65
2024/03/02 05:15:15;;;;;;;53.65;25.48;;;;;;;5.02;98.68;99958.36;1756404;81;25400;-65
2024/03/02 05:17:43;;;;;;;42.48;21.65;;;;;;;5.03;98.86;99965.30;1756329;81;25528;-65
2024/03/02 05:20:11;;;;;;;45.05;22.90;;;;;;;5.04;98.97;99971.48;1756284;81;25567;-65
2024/03/02 05:22:39;;;;;;;46.73;22.62;;;;;;;5.03;98.93;99973.34;1756346;81;25586;-66
2024/03/02 05:25:09;;;;;;;43.25;20.97;;;;;;;5.04;99.04;99976.30;1756302;81;27402;-65
2024/03/02 05:27:35;;;;;;;52.75;25.60;;;;;;;5.05;99.11;99973.86;1756339;81;25550;-66
2024/03/02 05:30:06;;;;;;;49.25;26.60;;;;;;;5.08;99.27;99983.79;1733035;82;25514;-66
2024/03/02 05:32:34;;;;;;;46.33;23.15;;;;;;;5.09;99.22;99980.83;1756233;79;25485;-66
2024/03/02 05:35:00;;;;;;;46.35;23.95;;;;;;;5.10;99.49;99986.44;1756366;81;25574;-66
2024/03/02 05:37:26;;;;;;;50.52;23.77;;;;;;;5.09;99.41;99986.19;1756349;81;27255;-66
2024/03/02 05:39:53;;;;;;;50.70;25.32;;;;;;;5.10;99.54;99993.69;1756247;81;25476;-66
2024/03/02 05:42:20;;;;;;;48.75;25.20;;;;;;;5.10;99.72;99997.16;1756310;81;25457;-66
2024/03/02 05:44:46;;;;;;;47.08;25.10;;;;;;;5.12;99.72;99994.99;1756310;81;25650;-66
2024/03/02 05:47:12;;;;;;;46.20;23.85;;;;;;;5.13;99.60;99997.16;1756313;81;25400;-66
2024/03/02 05:49:39;;;;;;;47.62;24.35;;;;;;;5.14;99.73;99993.37;1732993;81;27203;-66
2024/03/02 05:52:07;;;;;;;47.05;22.95;;;;;;;5.16;99.70;100002.76;1756270;81;25393;-66
2024/03/02 05:54:35;;;;;;;45.55;23.42;;;;;;;5.20;99.66;100013.72;1756462;81;25507;-66
2024/03/02 05:57:16;;;;;;;47.00;23.10;;;;;;;5.22;99.71;100008.88;1728601;81;25472;-66
2024/03/02 05:59:30;;;;;;;50.25;24.52;;;;;;;5.22;99.61;100004.30;1753630;81;25453;-66
2024/03/02 06:01:56;;;;;;;47.93;23.98;;;;;;;5.24;99.72;100006.70;1733033;81;27355;-65
2024/03/02 06:04:23;;;;;;;41.15;21.77;;;;;;;5.24;99.85;100010.73;1756248;81;25556;-66
2024/03/02 06:06:49;;;;;;;44.77;24.25;;;;;;;5.24;99.80;100013.41;1756338;81;25557;-66
2024/03/02 06:09:16;;;;;;;50.20;23.70;;;;;;;5.27;99.73;100014.20;1728703;81;25867;-66
2024/03/02 06:11:42;;;;;;;45.40;22.10;;;;;;;5.29;99.77;100022.76;1756421;81;25652;-66
2024/03/02 06:14:09;;;;;;;40.15;20.97;;;;;;;5.30;99.80;100028.39;1756299;81;28374;-67
2024/03/02 06:16:36;;;;;;;44.25;22.42;;;;;;;5.31;99.84;100030.01;1756229;81;25601;-66
2024/03/02 06:19:02;;;;;;;41.30;22.52;;;;;;;5.33;99.89;100027.02;1756293;81;25473;-66
2024/03/02 06:21:29;;;;;;;41.10;22.73;;;;;;;5.34;99.96;100028.63;1756349;81;25945;-68
2024/03/02 06:23:58;;;;;;;48.42;22.15;;;;;;;5.36;100.00;100018.41;1756576;81;25578;-67
2024/03/02 06:26:24;;;;;;;49.45;22.07;;;;;;;5.38;100.00;100030.48;1756300;81;27897;-66
2024/03/02 06:28:50;;;;;;;44.35;22.32;;;;;;;5.40;100.00;100027.52;1756272;81;25377;-66
2024/03/02 06:31:16;;;;;;;46.50;22.40;;;;;;;5.43;100.00;100030.95;1756406;81;25415;-67
2024/03/02 06:33:43;;;;;;;40.40;21.35;;;;;;;5.46;100.00;100033.09;1771324;80;25477;-66
2024/03/02 06:36:09;;;;;;;49.33;22.85;;;;;;;5.49;100.00;100035.77;1786107;80;25409;-66
2024/03/02 06:38:36;;;;;;;46.08;22.07;;;;;;;5.52;100.00;100035.20;1759286;80;27532;-67
2024/03/02 06:41:02;;;;;;;46.48;20.95;;;;;;;5.54;100.00;100037.85;1759203;81;25463;-67
2024/03/02 06:43:29;;;;;;;43.17;23.15;;;;;;;5.59;100.00;100034.34;1759280;81;25565;-66
2024/03/02 06:45:55;;;;;;;41.77;22.27;;;;;;;5.59;100.00;100039.15;1759188;81;25547;-66
2024/03/02 06:48:22;;;;;;;42.38;20.62;;;;;;;5.61;100.00;100034.84;1759245;81;25563;-66
2024/03/02 06:50:50;;;;;;;47.48;22.37;;;;;;;5.65;100.00;100041.79;1759348;81;27658;-66
2024/03/02 06:53:17;;;;;;;44.93;22.48;;;;;;;5.67;100.00;100040.96;1759286;81;25207;-66
2024/03/02 06:55:44;;;;;;;42.13;20.40;;;;;;;5.68;99.91;100039.89;1759251;81;25445;-65
2024/03/02 06:58:16;;;;;;;46.58;21.90;;;;;;;5.67;99.87;100040.44;1759227;81;25987;-66
2024/03/02 07:00:44;;;;;;;46.73;23.73;;;;;;;5.71;99.93;100047.38;1759358;81;25543;-66
2024/03/02 07:03:10;;;;;;;43.17;20.97;;;;;;;5.74;99.88;100046.83;1759207;81;28492;-67
2024/03/02 07:05:38;;;;;;;44.08;21.57;;;;;;;5.74;99.94;100032.85;1759093;80;25417;-67
2024/03/02 07:08:06;;;;;;;39.58;20.25;;;;;;;5.75;99.74;100029.62;1759225;80;25616;-67
2024/03/02 07:10:32;;;;;;;47.90;22.27;;;;;;;5.76;99.67;100033.36;1759295;81;25454;-66
2024/03/02 07:12:58;;;;;;;41.95;19.77;;;;;;;5.79;99.54;100042.75;1759337;81;25438;-67
2024/03/02 07:15:37;;;;;;;53.80;38.08;;;;;;;5.83;99.71;100036.27;1759263;81;27657;-67
2024/03/02 07:17:53;;;;;;;44.00;23.10;;;;;;;5.89;99.72;100049.88;1757733;81;25404;-65
2024/03/02 07:20:19;;;;;;;40.60;19.50;;;;;;;5.90;99.54;100040.20;1759346;81;25400;-67
2024/03/02 07:22:45;;;;;;;38.25;18.62;;;;;;;5.92;99.36;100046.09;1759238;81;25367;-66
2024/03/02 07:25:12;;;;;;;41.63;18.05;;;;;;;5.94;99.38;100039.91;1759290;81;25470;-67
2024/03/02 07:27:40;;;;;;;37.08;17.73;;;;;;;5.97;99.40;100041.25;1759224;81;27852;-67
2024/03/02 07:30:08;;;;;;;38.40;16.87;;;;;;;6.04;99.46;100045.73;1759136;81;25623;-67
2024/03/02 07:32:34;;;;;;;51.83;38.55;;;;;;;6.10;99.52;100050.53;1759209;81;25389;-66
2024/03/02 07:35:01;;;;;;;70.60;63.70;;;;;;;6.13;99.23;100052.62;1786417;80;25598;-66
2024/03/02 07:37:28;;;;;;;50.17;32.35;;;;;;;6.17;99.11;100055.02;1789435;80;25595;-65
2024/03/02 07:39:55;;;;;;;83.58;75.10;;;;;;;6.22;99.03;100050.93;1746704;82;27740;-64
2024/03/02 07:42:21;;;;;;;100.22;90.67;;;;;;;6.29;99.25;100049.25;1746654;82;25544;-64
2024/03/02 07:44:48;;;;;;;44.15;29.05;;;;;;;6.36;99.42;100051.83;1746605;82;25600;-54
2024/03/02 07:47:14;;;;;;;37.53;17.60;;;;;;;6.43;98.83;100057.41;1746572;82;25568;-54
2024/03/02 07:49:41;;;;;;;38.33;18.73;;;;;;;6.45;98.48;100064.11;1746567;82;25627;-55
2024/03/02 07:52:07;;;;;;;36.30;18.67;;;;;;;6.50;98.29;100049.27;1746716;82;27315;-55
2024/03/02 07:54:34;;;;;;;45.05;21.42;;;;;;;6.54;98.32;100046.26;1746569;82;25557;-52
2024/03/02 07:57:01;;;;;;;39.23;18.75;;;;;;;6.62;98.60;100046.14;1746671;82;25454;-52
2024/03/02 07:59:28;;;;;;;41.88;18.55;;;;;;;6.67;98.16;100042.60;1746575;82;25976;-54
2024/03/02 08:01:55;;;;;;;41.48;21.45;;;;;;;6.73;97.93;100043.59;1746665;82;25414;-53
2024/03/02 08:04:23;;;;;;;43.40;18.82;;;;;;;6.78;97.74;100045.98;1746582;82;27301;-53
2024/03/02 08:06:49;;;;;;;45.58;20.80;;;;;;;6.82;97.37;100053.16;1746477;82;25711;-54
2024/03/02 08:09:16;;;;;;;39.38;20.02;;;;;;;6.89;97.76;100062.20;1746614;82;25561;-53
2024/03/02 08:11:42;;;;;;;44.00;20.82;;;;;;;6.93;97.21;100065.94;1746609;82;25564;-53
2024/03/02 08:14:08;;;;;;;44.25;18.65;;;;;;;6.96;96.92;100064.54;1729582;82;25657;-54
2024/03/02 08:16:35;;;;;;;89.87;81.63;;;;;;;6.96;96.60;100062.64;1746600;82;27385;-55
2024/03/02 08:19:01;;;;;;;36.45;20.23;;;;;;;6.96;96.25;100062.64;1746523;82;25405;-53
2024/03/02 08:21:30;;;;;;;47.30;23.18;;;;;;;7.01;96.13;100065.81;1746609;82;25546;-56
2024/03/02 08:23:58;;;;;;;47.53;23.02;;;;;;;7.03;96.19;100064.97;1746648;82;26031;-55
2024/03/02 08:26:24;;;;;;;46.13;22.62;;;;;;;7.09;96.31;100065.16;1746631;82;25567;-57
2024/03/02 08:28:51;;;;;;;44.77;21.77;;;;;;;7.11;96.30;100073.18;1746512;82;27842;-56
2024/03/02 08:31:17;;;;;;;40.60;20.23;;;;;;;7.16;96.15;100066.94;1746518;82;25398;-54
2024/03/02 08:33:43;;;;;;;39.08;19.17;;;;;;;7.19;95.70;100061.53;1746544;80;25567;-55
2024/03/02 08:36:10;;;;;;;44.83;19.35;;;;;;;7.21;95.57;100056.66;1746568;82;26011;-56
2024/03/02 08:38:37;;;;;;;40.88;21.90;;;;;;;7.27;95.90;100052.26;1730071;83;25478;-56
2024/03/02 08:41:04;;;;;;;73.28;65.72;;;;;;;7.38;96.19;100067.69;1746598;82;27326;-55
2024/03/02 08:43:31;;;;;;;37.78;18.12;;;;;;;7.45;95.71;100070.80;1746506;82;25431;-55
2024/03/02 08:45:57;;;;;;;51.20;30.82;;;;;;;7.50;94.79;100069.92;1746604;82;25622;-57
2024/03/02 08:48:24;;;;;;;48.40;34.55;;;;;;;7.54;95.08;100073.63;1746524;82;26285;-54
2024/03/02 08:50:50;;;;;;;95.42;86.35;;;;;;;7.63;95.36;100065.70;1729681;82;25563;-57
2024/03/02 08:53:18;;;;;;;45.28;26.27;;;;;;;7.68;94.81;100077.73;1746696;82;27781;-54
2024/03/02 08:55:46;;;;;;;94.40;85.77;;;;;;;7.72;94.76;100076.03;1746524;82;25616;-56
2024/03/02 08:58:13;;;;;;;62.38;54.48;;;;;;;7.77;94.59;100068.42;1746596;82;25376;-57
2024/03/02 09:00:40;;;;;;;87.08;78.75;;;;;;;7.81;94.51;100075.59;1746608;82;25715;-54
2024/03/02 09:03:07;;;;;;;96.42;87.40;;;;;;;7.82;93.81;100078.55;1746601;82;25418;-54
2024/03/02 09:05:34;;;;;;;66.12;58.63;;;;;;;7.80;93.38;100075.92;1746587;82;27300;-57
2024/03/02 09:08:00;;;;;;;59.98;47.23;;;;;;;7.81;93.07;100078.84;1746515;82;25771;-56
2024/03/02 09:10:26;;;;;;;99.52;90.07;;;;;;;7.80;92.55;100081.30;1746620;82;25512;-56
2024/03/02 09:12:52;;;;;;;90.38;81.20;;;;;;;7.74;92.36;100078.44;1746540;82;25454;-63
2024/03/02 09:15:19;;;;;;;64.15;33.35;;;;;;;7.74;92.66;100085.95;1746607;82;25592;-62
2024/03/02 09:17:45;;;;;;;47.58;21.97;;;;;;;7.79;93.04;100089.12;1746626;82;27327;-59
2024/03/02 09:20:13;;;;;;;39.18;19.15;;;;;;;7.83;92.65;100081.51;1746487;82;25594;-55
2024/03/02 09:22:41;;;;;;;43.02;24.12;;;;;;;7.83;92.31;100078.00;1746533;82;25578;-55
2024/03/02 09:25:08;;;;;;;38.15;19.25;;;;;;;7.84;92.33;100076.91;1746499;80;25677;-56
2024/03/02 09:27:38;;;;;;;98.17;89.10;;;;;;;7.85;92.56;100077.97;1746609;82;25602;-56
2024/03/02 09:30:14;;;;;;;41.73;19.37;;;;;;;7.87;92.64;100072.29;1746531;82;27330;-55
2024/03/02 09:32:38;;;;;;;37.53;18.23;;;;;;;7.94;92.82;100076.73;1746115;81;25600;-57
2024/03/02 09:35:05;;;;;;;49.50;35.73;;;;;;;8.00;92.57;100085.52;1746506;80;25465;-54
2024/03/02 09:37:32;;;;;;;44.50;25.82;;;;;;;8.01;92.70;100079.84;1746546;82;25406;-58
2024/03/02 09:39:59;;;;;;;65.62;58.63;;;;;;;8.07;92.68;100084.61;1746615;82;25630;-57
2024/03/02 09:42:26;;;;;;;41.33;20.17;;;;;;;8.13;92.27;100085.30;1746549;82;27682;-54
2024/03/02 09:44:53;;;;;;;48.40;22.52;;;;;;;8.18;91.71;100095.43;1746543;82;25532;-56
2024/03/02 09:47:19;;;;;;;75.97;68.57;;;;;;;8.19;91.36;100092.20;1746742;82;25658;-53
2024/03/02 09:49:46;;;;;;;97.00;88.10;;;;;;;8.19;91.43;100090.86;1746640;82;25986;-55
2024/03/02 09:52:14;;;;;;;56.05;42.55;;;;;;;8.23;91.87;100091.30;1746776;82;25450;-52
2024/03/02 09:54:41;;;;;;;53.10;28.20;;;;;;;8.31;92.10;100080.91;1746955;82;27321;-56
2024/03/02 09:57:07;;;;;;;75.85;67.75;;;;;;;8.36;91.55;100082.98;1746614;82;25867;-53
2024/03/02 09:59:34;;;;;;;41.70;20.88;;;;;;;8.48;92.34;100082.52;1746716;82;25536;-53
2024/03/02 10:02:03;;;;;;;46.13;21.85;;;;;;;8.59;91.75;100085.80;1746684;82;26319;-56
2024/03/02 10:04:32;;;;;;;43.38;20.70;;;;;;;8.69;91.30;100086.15;1746846;82;25486;-56
2024/03/02 10:07:13;;;;;;;43.42;21.07;;;;;;;8.79;91.02;100083.24;1746704;82;28008;-51
2024/03/02 10:09:48;;;;;;;42.88;21.70;;;;;;;8.87;91.09;100074.45;1746506;81;25592;-63
2024/03/02 10:12:18;;;;;;;45.78;21.65;;;;;;;8.95;89.76;100068.88;1746698;82;25425;-59
2024/03/02 10:14:45;;;;;;;44.93;23.02;;;;;;;8.97;89.12;100066.66;1746828;82;25501;-59
2024/03/02 10:17:15;;;;;;;46.88;21.00;;;;;;;8.97;88.73;100064.78;1746692;82;25596;-57
2024/03/02 10:19:42;;;;;;;102.90;92.92;;;;;;;9.03;89.18;100068.16;1746710;82;27303;-59
2024/03/02 10:22:10;;;;;;;45.35;25.23;;;;;;;9.05;88.66;100063.25;1746693;82;25368;-59
2024/03/02 10:24:44;;;;;;;85.30;77.22;;;;;;;9.07;88.48;100062.95;1746643;82;25579;-58
2024/03/02 10:27:27;;;;;;;36.23;19.62;;;;;;;9.14;89.13;100057.92;1746648;82;25962;-59
2024/03/02 10:29:53;;;;;;;58.58;28.40;;;;;;;9.22;88.60;100059.11;1746645;82;25447;-66
2024/03/02 10:32:22;;;;;;;90.45;44.98;;;;;;;9.28;89.35;100054.64;1746653;82;27996;-66
2024/03/02 10:34:50;;;;;;;43.00;23.50;;;;;;;9.41;89.16;100061.63;1750649;80;25538;-58
2024/03/02 10:37:17;;;;;;;41.92;21.25;;;;;;;9.50;88.87;100065.18;1756265;81;25556;-59
2024/03/02 10:39:48;;;;;;;44.40;21.42;;;;;;;9.58;88.43;100057.70;1756253;81;26342;-59
2024/03/02 10:42:15;;;;;;;42.05;22.65;;;;;;;9.68;88.66;100053.95;1733068;81;25638;-59
2024/03/02 10:44:42;;;;;;;48.63;28.55;;;;;;;9.84;89.15;100050.30;1756281;81;27771;-59
2024/03/02 10:47:11;;;;;;;47.10;28.38;;;;;;;10.00;88.08;100048.02;1756198;81;25562;-60
2024/03/02 10:49:42;;;;;;;51.00;38.55;;;;;;;10.09;87.20;100048.28;1756190;80;25443;-60
2024/03/02 10:52:09;;;;;;;43.33;28.55;;;;;;;10.19;86.92;100047.21;1756329;81;25394;-59
2024/03/02 10:54:39;;;;;;;101.53;91.85;;;;;;;10.31;85.91;100037.16;1728899;81;25651;-58
2024/03/02 10:57:09;;;;;;;41.55;22.02;;;;;;;10.38;86.71;100032.12;1756331;81;27723;-59
2024/03/02 10:59:39;;;;;;;60.23;44.70;;;;;;;10.54;85.79;100033.03;1756272;81;25591;-59
2024/03/02 11:02:09;;;;;;;98.95;89.45;;;;;;;10.61;84.90;100036.87;1756429;81;25581;-59
2024/03/02 11:04:35;;;;;;;;;;;;;;;10.65;84.57;100030.28;1758495;81;25753;-60
2024/03/02 11:07:10;;;;;;;76.30;68.45;;;;;;;10.75;85.09;100029.19;1756303;81;25401;-59
2024/03/02 11:09:52;;;;;;;48.05;23.87;;;;;;;10.81;83.73;100037.37;1756225;81;27473;-58
2024/03/02 11:12:36;;;;;;;47.88;28.10;;;;;;;10.86;83.39;100037.79;1726465;82;25786;-59
2024/03/02 11:15:08;;;;;;;49.35;25.10;;;;;;;10.90;83.79;100038.20;1755318;81;25608;-58
2024/03/02 11:17:35;;;;;;;53.35;25.85;;;;;;;11.04;83.85;100042.11;1756078;81;25655;-59
2024/03/02 11:20:04;;;;;;;51.95;26.80;;;;;;;11.12;81.38;100041.31;1756321;81;25451;-59
2024/03/02 11:22:31;;;;;;;;;;;;;;;11.03;80.19;100036.44;1735548;81;27334;-58
2024/03/02 11:24:57;;;;;;;51.15;27.20;;;;;;;10.97;80.96;100039.88;1756175;81;25622;-59
2024/03/02 11:27:49;;;;;;;50.70;24.87;;;;;;;11.02;82.12;100042.98;1756260;81;25540;-58